Time;durP1;ratioP1;P1;durP2;ratioP2;P2;SDS_P1;SDS_P2;PMS_P1;PMS_P2;Temp;Humidity;BMP_temperature;BMP_pressure;BME280_temperature;BME280_humidity;BME280_pressure;Samples;Min_cycle;Max_cycle;Signal;HPM_P1;HPM_P2
2023/08/01 00:01:26;;;;;;;1.60;1.50;;;21.30;76.90;22.10;99074.00;;;;6270128;22;20669;-53
2023/08/01 00:03:51;;;;;;;1.20;1.20;;;21.30;77.00;22.10;99152.00;;;;6270921;22;20816;-53
2023/08/01 00:06:17;;;;;;;1.60;1.50;;;21.30;77.00;22.10;99141.00;;;;6270410;22;20198;-53
2023/08/01 00:08:43;;;;;;;1.40;1.30;;;21.30;77.10;22.10;99139.00;;;;6269048;22;20152;-53
2023/08/01 00:11:09;;;;;;;1.40;1.30;;;21.30;77.00;22.10;99133.00;;;;6270749;22;20195;-53
2023/08/01 00:13:35;;;;;;;1.60;1.50;;;21.30;77.10;22.10;99134.00;;;;6270931;22;20172;-53
2023/08/01 00:16:01;;;;;;;1.43;1.33;;;21.30;77.00;22.10;99137.00;;;;6270556;22;20179;-53
2023/08/01 00:18:27;;;;;;;1.60;1.50;;;21.20;77.00;22.10;99132.00;;;;6270775;22;20450;-53
2023/08/01 00:20:53;;;;;;;4.10;1.70;;;21.20;76.90;22.10;99131.00;;;;6270502;22;20616;-53
2023/08/01 00:23:19;;;;;;;1.60;1.50;;;21.20;76.90;22.10;99113.00;;;;6270348;22;20278;-53
2023/08/01 00:25:51;;;;;;;1.50;1.40;;;21.20;77.00;22.10;99129.00;;;;6270447;22;20228;-54
2023/08/01 00:28:18;;;;;;;1.70;1.60;;;21.20;77.00;22.10;99110.00;;;;6271192;22;20153;-53
2023/08/01 00:30:44;;;;;;;1.80;1.70;;;21.30;77.00;22.10;99075.00;;;;6270837;22;20227;-53
2023/08/01 00:33:10;;;;;;;1.30;1.20;;;21.30;77.00;22.10;99069.00;;;;6271140;22;20255;-53
2023/08/01 00:35:35;;;;;;;1.97;1.70;;;21.30;77.00;22.10;99074.00;;;;6270730;22;20211;-53
2023/08/01 00:38:01;;;;;;;1.50;1.40;;;21.30;77.00;22.10;99085.00;;;;6270752;22;20148;-53
2023/08/01 00:40:33;;;;;;;1.57;1.47;;;21.20;76.90;22.10;99084.00;;;;6269096;22;20219;-53
2023/08/01 00:42:59;;;;;;;1.60;1.50;;;21.20;76.80;22.10;99099.00;;;;6267879;22;20187;-53
2023/08/01 00:45:29;;;;;;;1.70;1.60;;;21.20;76.80;22.10;99097.00;;;;6268900;22;20481;-52
2023/08/01 00:47:55;;;;;;;1.77;1.67;;;21.20;76.90;22.10;99100.00;;;;6268872;22;20151;-53
2023/08/01 00:50:21;;;;;;;1.70;1.60;;;21.20;76.90;22.10;99094.00;;;;6269304;22;20712;-53
2023/08/01 00:52:47;;;;;;;1.80;1.70;;;21.20;76.90;22.10;99043.00;;;;6269539;22;20322;-53
2023/08/01 00:55:14;;;;;;;1.70;1.60;;;21.20;76.90;22.10;99037.00;;;;6267561;22;20747;-51
2023/08/01 00:57:40;;;;;;;1.97;1.80;;;21.20;76.90;22.00;98994.00;;;;6267726;22;20160;-53
2023/08/01 01:00:06;;;;;;;1.97;1.60;;;21.20;77.00;22.00;99024.00;;;;6242236;22;20667;-53
2023/08/01 01:02:32;;;;;;;2.40;1.90;;;21.20;77.00;22.00;99033.00;;;;6269082;22;20251;-53
2023/08/01 01:04:58;;;;;;;2.10;1.90;;;21.20;77.10;22.00;99037.00;;;;6267957;22;20362;-53
2023/08/01 01:07:24;;;;;;;3.00;1.90;;;21.20;77.10;22.00;99032.00;;;;6268754;22;20143;-53
2023/08/01 01:09:50;;;;;;;2.27;2.07;;;21.10;77.10;22.00;99025.00;;;;6267173;22;20165;-53
2023/08/01 01:12:16;;;;;;;1.80;1.70;;;21.20;77.20;22.00;99027.00;;;;6269100;22;20145;-57
2023/08/01 01:14:42;;;;;;;2.00;1.90;;;21.20;77.20;22.00;99028.00;;;;6268855;22;20203;-53
2023/08/01 01:17:07;;;;;;;1.87;1.77;;;21.10;77.20;22.00;99017.00;;;;6269063;22;20184;-53
2023/08/01 01:19:33;;;;;;;1.70;1.60;;;21.10;77.20;22.00;99020.00;;;;6268951;22;20203;-54
2023/08/01 01:22:04;;;;;;;2.50;1.97;;;21.10;77.20;22.00;99018.00;;;;6268521;22;20152;-51
2023/08/01 01:24:29;;;;;;;3.23;2.03;;;21.10;77.20;22.00;99005.00;;;;6241857;22;20244;-53
2023/08/01 01:26:55;;;;;;;2.10;1.90;;;21.20;77.30;22.00;99010.00;;;;6241357;22;20565;-53
2023/08/01 01:29:22;;;;;;;2.33;1.90;;;21.20;77.30;22.00;99027.00;;;;6266966;22;20187;-53
2023/08/01 01:31:47;;;;;;;1.90;1.80;;;21.10;77.20;22.10;99020.00;;;;6266895;22;20152;-53
2023/08/01 01:34:13;;;;;;;1.83;1.73;;;21.10;77.20;22.00;99020.00;;;;6241679;22;20149;-53
2023/08/01 01:36:39;;;;;;;2.10;1.90;;;21.10;77.20;22.00;99015.00;;;;6266856;22;20152;-53
2023/08/01 01:39:05;;;;;;;3.10;1.90;;;21.10;77.20;22.00;99010.00;;;;6268373;22;20152;-53
2023/08/01 01:41:31;;;;;;;1.90;1.80;;;21.10;77.30;22.00;99016.00;;;;6268392;22;20196;-53
2023/08/01 01:43:56;;;;;;;2.20;2.00;;;21.10;77.40;22.00;99024.00;;;;6268458;22;20200;-53
2023/08/01 01:46:22;;;;;;;2.20;2.00;;;21.10;77.30;22.00;99033.00;;;;6268114;22;20685;-53
2023/08/01 01:48:48;;;;;;;2.13;1.93;;;21.10;77.40;21.90;99027.00;;;;6268404;22;20149;-53
2023/08/01 01:51:13;;;;;;;2.10;1.90;;;21.10;77.40;21.90;98994.00;;;;6268037;22;20176;-53
2023/08/01 01:53:39;;;;;;;2.10;2.00;;;21.10;77.50;21.90;98981.00;;;;6268238;22;20938;-52
2023/08/01 01:56:05;;;;;;;2.10;1.90;;;21.10;77.50;21.90;98944.00;;;;6268157;22;20187;-52
2023/08/01 01:58:31;;;;;;;1.80;1.70;;;21.10;77.40;21.90;99007.00;;;;6268098;22;20149;-52
2023/08/01 02:00:56;;;;;;;2.00;1.80;;;21.10;77.50;21.90;99001.00;;;;6268455;22;20837;-53
2023/08/01 02:03:22;;;;;;;2.00;1.80;;;21.10;77.50;22.00;99010.00;;;;6268232;22;20177;-52
2023/08/01 02:05:48;;;;;;;1.90;1.80;;;21.10;77.40;21.90;99005.00;;;;6267968;22;20145;-52
2023/08/01 02:08:14;;;;;;;2.10;1.90;;;21.10;77.50;21.90;99020.00;;;;6268346;22;20148;-53
2023/08/01 02:10:39;;;;;;;2.03;1.93;;;21.00;77.50;21.90;99017.00;;;;6266469;22;20176;-52
2023/08/01 02:13:06;;;;;;;2.33;1.70;;;21.10;77.60;21.90;99013.00;;;;6268512;22;20145;-52
2023/08/01 02:15:32;;;;;;;2.13;1.93;;;21.10;77.60;21.90;99007.00;;;;6268280;22;20145;-52
2023/08/01 02:17:58;;;;;;;1.87;1.77;;;21.00;77.50;21.90;99005.00;;;;6267994;22;20195;-52
2023/08/01 02:20:23;;;;;;;3.27;1.90;;;21.00;77.50;21.90;99000.00;;;;6268672;22;20499;-52
2023/08/01 02:22:49;;;;;;;1.90;1.80;;;21.00;77.40;21.90;99001.00;;;;6267912;22;20176;-53
2023/08/01 02:25:15;;;;;;;2.00;1.80;;;21.10;77.50;21.90;98999.00;;;;6268019;22;20148;-51
2023/08/01 02:27:40;;;;;;;2.73;1.70;;;21.00;77.50;21.90;99004.00;;;;6267982;22;20152;-51
2023/08/01 02:30:07;;;;;;;1.73;1.63;;;21.00;77.40;21.90;99011.00;;;;6268216;22;20548;-52
2023/08/01 02:32:33;;;;;;;1.80;1.70;;;21.10;77.60;21.90;99020.00;;;;6268492;22;20427;-52
2023/08/01 02:34:58;;;;;;;3.47;1.80;;;21.10;77.60;21.90;99010.00;;;;6268014;22;20144;-51
2023/08/01 02:37:24;;;;;;;1.80;1.70;;;21.00;77.40;21.90;99020.00;;;;6267619;22;20156;-52
2023/08/01 02:39:50;;;;;;;2.40;1.80;;;21.00;77.50;21.90;99011.00;;;;6267985;22;20239;-52
2023/08/01 02:42:15;;;;;;;2.33;1.70;;;21.00;77.50;21.90;99007.00;;;;6268175;22;20538;-53
2023/08/01 02:44:41;;;;;;;2.00;1.80;;;21.00;77.50;21.90;99018.00;;;;6266648;22;20197;-53
2023/08/01 02:47:07;;;;;;;1.83;1.73;;;21.10;77.60;21.90;99016.00;;;;6267709;22;20610;-52
2023/08/01 02:49:33;;;;;;;1.80;1.70;;;21.10;77.50;21.90;99021.00;;;;6267645;22;20169;-52
2023/08/01 02:51:58;;;;;;;1.60;1.50;;;21.00;77.40;21.90;99021.00;;;;6267776;22;20152;-52
2023/08/01 02:54:24;;;;;;;1.80;1.70;;;21.00;77.70;21.90;99018.00;;;;6267647;22;20145;-52
2023/08/01 02:56:51;;;;;;;1.70;1.60;;;21.00;77.50;21.90;99021.00;;;;6267599;22;20533;-52
2023/08/01 02:59:18;;;;;;;1.97;1.60;;;21.00;77.50;21.90;99020.00;;;;6267950;22;20165;-52
2023/08/01 03:01:43;;;;;;;2.03;1.70;;;21.00;77.50;21.90;99017.00;;;;6268869;22;20168;-52
2023/08/01 03:04:11;;;;;;;1.53;1.43;;;21.00;78.30;21.90;99020.00;;;;6271111;22;20183;-52
2023/08/01 03:06:37;;;;;;;1.70;1.60;;;21.00;77.50;21.90;99020.00;;;;6268870;22;20197;-52
2023/08/01 03:09:03;;;;;;;1.90;1.77;;;21.00;77.50;21.90;99031.00;;;;6269222;22;20154;-52
2023/08/01 03:11:28;;;;;;;1.60;1.50;;;21.00;77.50;21.90;99026.00;;;;6269231;22;20145;-52
2023/08/01 03:13:54;;;;;;;1.70;1.60;;;21.10;77.60;21.90;99038.00;;;;6268035;22;20160;-52
2023/08/01 03:16:20;;;;;;;1.80;1.70;;;21.00;77.50;21.90;99038.00;;;;6268771;22;20230;-52
2023/08/01 03:18:46;;;;;;;1.60;1.50;;;21.00;77.50;21.90;99033.00;;;;6270829;22;20218;-52
2023/08/01 03:21:11;;;;;;;1.50;1.40;;;21.00;77.50;21.90;99047.00;;;;6269200;22;20227;-52
2023/08/01 03:23:37;;;;;;;1.77;1.67;;;21.00;77.50;21.90;99043.00;;;;6269087;22;20256;-52
2023/08/01 03:26:03;;;;;;;1.87;1.40;;;21.00;77.60;21.90;99049.00;;;;6267744;22;20148;-52
2023/08/01 03:28:29;;;;;;;1.70;1.60;;;21.00;77.60;21.90;99048.00;;;;6268018;22;20144;-52
2023/08/01 03:30:55;;;;;;;1.37;1.30;;;21.00;78.20;21.90;99050.00;;;;6268698;22;20194;-52
2023/08/01 03:33:21;;;;;;;1.60;1.50;;;21.00;77.80;21.90;99038.00;;;;6267831;22;20210;-52
2023/08/01 03:35:47;;;;;;;1.53;1.43;;;21.00;77.80;21.90;99058.00;;;;6269234;22;20281;-52
2023/08/01 03:38:12;;;;;;;1.90;1.80;;;21.00;77.80;21.90;99062.00;;;;6267214;22;20590;-52
2023/08/01 03:40:38;;;;;;;1.90;1.70;;;21.00;77.90;21.90;99065.00;;;;6269242;22;20175;-52
2023/08/01 03:43:05;;;;;;;3.10;1.90;;;21.00;78.00;21.90;99061.00;;;;6267481;22;20687;-52
2023/08/01 03:45:30;;;;;;;3.40;1.77;;;21.00;78.00;21.90;99071.00;;;;6268735;22;20172;-52
2023/08/01 03:47:56;;;;;;;4.07;1.80;;;21.00;78.10;21.90;99082.00;;;;6269056;22;20149;-52
2023/08/01 03:50:22;;;;;;;3.27;1.80;;;21.00;78.20;21.90;99073.00;;;;6268827;22;20191;-52
2023/08/01 03:52:47;;;;;;;6.27;1.90;;;21.00;78.20;21.90;99079.00;;;;6269153;22;20153;-52
2023/08/01 03:55:13;;;;;;;5.73;1.90;;;21.00;78.40;21.90;99081.00;;;;6269034;22;20180;-52
2023/08/01 03:57:39;;;;;;;3.47;1.80;;;21.00;78.40;21.90;99095.00;;;;6268997;22;20158;-52
2023/08/01 04:00:13;;;;;;;4.20;2.10;;;21.00;78.40;21.90;99091.00;;;;6268699;22;20168;-52
2023/08/01 04:02:42;;;;;;;2.80;1.60;;;21.00;78.40;21.80;99098.00;;;;6266957;22;20778;-52
2023/08/01 04:05:08;;;;;;;2.53;1.70;;;21.00;78.40;21.80;99092.00;;;;6268354;22;20146;-52
2023/08/01 04:07:38;;;;;;;3.23;1.90;;;21.00;78.40;21.80;99098.00;;;;6268436;22;20150;-52
2023/08/01 04:10:04;;;;;;;2.10;1.90;;;21.00;78.40;21.80;99090.00;;;;6268761;22;20844;-52
2023/08/01 04:12:32;;;;;;;2.60;1.80;;;21.00;78.40;21.80;99087.00;;;;6268543;22;20156;-52
2023/08/01 04:14:58;;;;;;;2.77;1.90;;;21.00;78.40;21.80;99094.00;;;;6267603;22;20201;-52
2023/08/01 04:17:23;;;;;;;3.40;1.70;;;21.00;78.40;21.80;99099.00;;;;6270239;22;20219;-52
2023/08/01 04:19:49;;;;;;;2.30;2.00;;;20.90;78.30;21.80;99102.00;;;;6270087;22;20169;-52
2023/08/01 04:22:15;;;;;;;1.90;1.73;;;21.00;78.30;21.80;99103.00;;;;6270383;22;20148;-52
2023/08/01 04:24:40;;;;;;;1.70;1.60;;;20.90;78.20;21.80;99106.00;;;;6270172;22;20168;-52
2023/08/01 04:27:06;;;;;;;2.10;1.90;;;20.90;78.30;21.80;99108.00;;;;6270151;22;20144;-52
2023/08/01 04:29:32;;;;;;;3.50;1.93;;;20.90;78.30;21.80;99109.00;;;;6270653;22;20188;-52
2023/08/01 04:31:57;;;;;;;2.67;1.80;;;20.90;78.30;21.80;99117.00;;;;6270158;22;20676;-52
2023/08/01 04:34:23;;;;;;;1.80;1.67;;;21.00;78.40;21.80;99093.00;;;;6270604;22;20203;-52
2023/08/01 04:36:49;;;;;;;2.23;1.63;;;21.00;78.40;21.80;99115.00;;;;6268476;22;20149;-52
2023/08/01 04:39:15;;;;;;;3.33;1.83;;;21.00;78.40;21.80;99110.00;;;;6270283;22;20173;-52
2023/08/01 04:41:40;;;;;;;3.23;2.10;;;20.90;78.20;21.80;99114.00;;;;6270418;22;20465;-52
2023/08/01 04:44:06;;;;;;;4.13;1.70;;;20.90;78.20;21.80;99112.00;;;;6270286;22;20172;-52
2023/08/01 04:46:32;;;;;;;2.10;1.70;;;20.90;78.30;21.80;99108.00;;;;6269278;22;20145;-52
2023/08/01 04:48:58;;;;;;;2.03;1.80;;;20.90;78.30;21.80;99107.00;;;;6270341;22;20216;-52
2023/08/01 04:51:24;;;;;;;1.90;1.80;;;20.90;78.30;21.80;99114.00;;;;6270452;22;20239;-52
2023/08/01 04:53:50;;;;;;;2.17;1.97;;;20.90;78.30;21.80;99113.00;;;;6270407;22;20154;-52
2023/08/01 04:56:16;;;;;;;2.00;1.80;;;20.90;78.30;21.80;99115.00;;;;6270347;22;20239;-54
2023/08/01 04:58:42;;;;;;;2.50;1.67;;;20.90;78.30;21.80;99115.00;;;;6270654;22;20515;-52
2023/08/01 05:01:07;;;;;;;2.97;1.80;;;20.90;78.30;21.80;99119.00;;;;6270688;22;20179;-52
2023/08/01 05:03:33;;;;;;;1.83;1.73;;;20.90;78.30;21.80;99112.00;;;;6273044;22;20207;-52
2023/08/01 05:05:59;;;;;;;1.93;1.73;;;20.90;78.20;21.80;99114.00;;;;6271592;22;20812;-52
2023/08/01 05:08:25;;;;;;;1.93;1.83;;;20.90;78.20;21.80;99118.00;;;;6265181;22;20180;-52
2023/08/01 05:10:50;;;;;;;2.10;1.90;;;20.90;78.20;21.80;99112.00;;;;6269127;22;20807;-52
2023/08/01 05:13:16;;;;;;;1.87;1.63;;;20.90;78.20;21.80;99114.00;;;;6269995;22;20192;-53
2023/08/01 05:15:47;;;;;;;2.07;1.90;;;20.90;78.90;21.80;99119.00;;;;6269489;22;20156;-53
2023/08/01 05:18:13;;;;;;;2.00;1.90;;;20.90;78.20;21.70;99119.00;;;;6273522;22;20160;-52
2023/08/01 05:20:39;;;;;;;1.77;1.67;;;20.90;78.20;21.80;99126.00;;;;6268454;22;20256;-52
2023/08/01 05:23:05;;;;;;;2.53;2.00;;;20.90;78.10;21.70;99132.00;;;;6269106;22;20173;-53
2023/08/01 05:25:30;;;;;;;1.90;1.80;;;20.90;78.10;21.70;99123.00;;;;6269082;22;20626;-52
2023/08/01 05:27:56;;;;;;;2.00;1.60;;;20.90;78.00;21.70;99141.00;;;;6268539;22;20152;-52
2023/08/01 05:30:22;;;;;;;2.93;2.07;;;20.90;78.00;21.70;99135.00;;;;6269785;22;20168;-52
2023/08/01 05:32:48;;;;;;;2.40;1.80;;;20.80;78.00;21.70;99141.00;;;;6269692;22;20165;-52
2023/08/01 05:35:13;;;;;;;2.80;1.90;;;20.80;78.10;21.70;99141.00;;;;6269320;22;20152;-51
2023/08/01 05:37:39;;;;;;;2.13;2.00;;;20.90;78.00;21.70;99140.00;;;;6267442;22;20487;-54
2023/08/01 05:40:06;;;;;;;1.80;1.70;;;20.80;77.90;21.70;99141.00;;;;6269398;22;20214;-53
2023/08/01 05:42:31;;;;;;;1.80;1.70;;;20.80;78.00;21.70;99143.00;;;;6269424;22;20680;-53
2023/08/01 05:44:57;;;;;;;2.43;2.00;;;20.90;78.00;21.70;99147.00;;;;6268881;22;20143;-53
2023/08/01 05:47:23;;;;;;;1.90;1.80;;;20.80;77.90;21.70;99151.00;;;;6268739;22;20145;-53
2023/08/01 05:49:49;;;;;;;1.80;1.70;;;20.80;77.90;21.70;99158.00;;;;6267660;22;20172;-53
2023/08/01 05:52:14;;;;;;;1.83;1.73;;;20.80;77.90;21.70;99160.00;;;;6269208;22;20232;-53
2023/08/01 05:54:40;;;;;;;1.97;1.87;;;20.80;78.00;21.70;99165.00;;;;6268956;22;20152;-53
2023/08/01 05:57:07;;;;;;;2.00;1.80;;;20.80;77.80;21.60;99171.00;;;;6268713;22;20237;-52
2023/08/01 05:59:32;;;;;;;2.10;1.90;;;20.80;77.90;21.60;99164.00;;;;6269539;22;20247;-52
2023/08/01 06:01:58;;;;;;;1.87;1.77;;;20.80;77.80;21.60;99165.00;;;;6266867;22;20152;-53
2023/08/01 06:04:24;;;;;;;2.07;1.87;;;20.80;77.80;21.60;99165.00;;;;6269632;22;20168;-53
2023/08/01 06:06:50;;;;;;;2.20;2.00;;;20.80;77.80;21.60;99163.00;;;;6268260;22;20143;-53
2023/08/01 06:09:15;;;;;;;2.00;1.90;;;20.80;77.80;21.60;99163.00;;;;6268825;22;20172;-52
2023/08/01 06:11:41;;;;;;;1.90;1.67;;;20.80;77.70;21.60;99166.00;;;;6269058;22;20179;-53
2023/08/01 06:14:08;;;;;;;2.00;1.90;;;20.80;77.80;21.60;99164.00;;;;6267455;22;20157;-52
2023/08/01 06:16:34;;;;;;;1.90;1.80;;;20.80;77.80;21.60;99156.00;;;;6267478;22;20256;-53
2023/08/01 06:19:00;;;;;;;2.00;1.90;;;20.80;77.70;21.60;99152.00;;;;6264087;22;20247;-53
2023/08/01 06:21:26;;;;;;;1.93;1.80;;;20.80;77.70;21.60;99158.00;;;;6269329;22;20191;-53
2023/08/01 06:23:51;;;;;;;1.90;1.80;;;20.80;77.70;21.60;99159.00;;;;6267890;22;20173;-53
2023/08/01 06:26:17;;;;;;;2.23;1.90;;;20.80;77.70;21.60;99168.00;;;;6266175;22;20366;-53
2023/08/01 06:28:43;;;;;;;1.80;1.70;;;20.80;77.70;21.60;99173.00;;;;6269160;22;20142;-53
2023/08/01 06:31:09;;;;;;;2.00;1.90;;;20.80;77.60;21.60;99166.00;;;;6269310;22;20652;-53
2023/08/01 06:33:34;;;;;;;2.00;1.90;;;20.80;77.60;21.60;99166.00;;;;6269038;22;20173;-53
2023/08/01 06:36:00;;;;;;;1.93;1.83;;;20.80;77.70;21.60;99172.00;;;;6269885;22;20663;-52
2023/08/01 06:38:26;;;;;;;1.90;1.80;;;20.70;77.60;21.50;99172.00;;;;6268711;22;20203;-52
2023/08/01 06:40:51;;;;;;;2.20;2.00;;;20.70;77.60;21.60;99177.00;;;;6270625;22;20225;-53
2023/08/01 06:43:17;;;;;;;2.30;2.10;;;20.80;77.60;21.50;99172.00;;;;6270854;22;20180;-53
2023/08/01 06:45:43;;;;;;;2.00;1.90;;;20.70;77.50;21.60;99179.00;;;;6270226;22;20156;-53
2023/08/01 06:48:09;;;;;;;1.90;1.80;;;20.80;77.60;21.60;99179.00;;;;6269164;22;20259;-52
2023/08/01 06:50:35;;;;;;;2.20;2.00;;;20.70;77.50;21.50;99184.00;;;;6269762;22;20167;-52
2023/08/01 06:53:01;;;;;;;1.97;1.87;;;20.80;77.70;21.50;99181.00;;;;6270925;22;20145;-53
2023/08/01 06:55:27;;;;;;;1.97;1.87;;;20.70;77.40;21.50;99179.00;;;;6270440;22;20152;-53
2023/08/01 06:57:53;;;;;;;1.90;1.80;;;20.70;77.50;21.50;99177.00;;;;6270359;22;20184;-53
2023/08/01 07:00:18;;;;;;;1.90;1.80;;;20.80;77.60;21.60;99179.00;;;;6270428;22;20180;-53
2023/08/01 07:02:44;;;;;;;2.20;2.00;;;20.70;77.40;21.50;99173.00;;;;6274288;22;20180;-53
2023/08/01 07:05:10;;;;;;;2.03;1.90;;;20.80;77.50;21.60;99184.00;;;;6272077;22;20477;-52
2023/08/01 07:07:35;;;;;;;2.07;1.90;;;20.80;77.50;21.50;99177.00;;;;6270028;22;20145;-52
2023/08/01 07:10:01;;;;;;;1.83;1.73;;;20.80;77.40;21.50;99185.00;;;;6270450;22;20501;-53
2023/08/01 07:12:27;;;;;;;1.90;1.80;;;20.70;77.40;21.50;99187.00;;;;6270042;22;20544;-53
2023/08/01 07:14:53;;;;;;;2.00;1.83;;;20.70;77.40;21.50;99179.00;;;;6270816;22;20585;-54
2023/08/01 07:17:18;;;;;;;2.23;2.03;;;20.70;77.40;21.50;99184.00;;;;6274188;22;20167;-53
2023/08/01 07:19:44;;;;;;;2.00;1.90;;;20.70;77.40;21.50;99185.00;;;;6271370;22;20617;-53
2023/08/01 07:22:10;;;;;;;2.20;2.00;;;20.70;77.40;21.50;99175.00;;;;6270625;22;20152;-53
2023/08/01 07:24:36;;;;;;;2.17;2.00;;;20.70;77.30;21.50;99187.00;;;;6270153;22;20153;-53
2023/08/01 07:27:01;;;;;;;2.00;1.80;;;20.70;77.30;21.50;99190.00;;;;6270379;22;20202;-53
2023/08/01 07:29:27;;;;;;;2.03;1.87;;;20.70;77.30;21.50;99192.00;;;;6270545;22;20176;-53
2023/08/01 07:31:53;;;;;;;2.00;1.90;;;20.70;77.40;21.50;99191.00;;;;6270587;22;20149;-53
2023/08/01 07:34:18;;;;;;;2.10;1.90;;;20.70;77.30;21.50;99185.00;;;;6270454;22;20158;-53
2023/08/01 07:36:48;;;;;;;2.00;1.90;;;20.70;77.30;21.50;99186.00;;;;6269327;22;20684;-54
2023/08/01 07:39:14;;;;;;;1.83;1.73;;;20.70;77.40;21.50;99187.00;;;;6270397;22;20537;-54
2023/08/01 07:41:40;;;;;;;4.90;2.10;;;20.70;77.40;21.50;99187.00;;;;6270456;22;20145;-53
2023/08/01 07:44:05;;;;;;;2.00;1.90;;;20.70;77.60;21.50;99193.00;;;;6269905;22;20180;-53
2023/08/01 07:46:32;;;;;;;2.17;2.00;;;20.70;77.70;21.50;99199.00;;;;6270358;22;20608;-53
2023/08/01 07:48:59;;;;;;;2.47;2.07;;;20.70;77.70;21.50;99199.00;;;;6242710;22;20172;-53
2023/08/01 07:51:25;;;;;;;3.33;2.10;;;20.70;77.70;21.50;99192.00;;;;6272373;22;20152;-53
2023/08/01 07:53:53;;;;;;;3.93;2.20;;;20.70;77.60;21.50;99198.00;;;;6271898;22;20806;-53
2023/08/01 07:56:19;;;;;;;3.10;2.10;;;20.70;77.70;21.50;99198.00;;;;6270233;22;20148;-53
2023/08/01 07:58:45;;;;;;;2.30;2.10;;;20.70;77.70;21.50;99198.00;;;;6271825;22;20148;-53
2023/08/01 08:01:11;;;;;;;2.53;2.10;;;20.70;77.60;21.50;99216.00;;;;6271903;22;20175;-53
2023/08/01 08:03:36;;;;;;;2.47;2.20;;;20.70;77.60;21.50;99213.00;;;;6272605;22;20663;-53
2023/08/01 08:06:03;;;;;;;2.37;2.17;;;20.70;77.70;21.50;99212.00;;;;6271718;22;20152;-53
2023/08/01 08:08:29;;;;;;;2.50;2.20;;;20.70;77.60;21.50;99217.00;;;;6270660;22;20151;-53
2023/08/01 08:10:55;;;;;;;2.03;1.93;;;20.70;77.60;21.50;99220.00;;;;6271642;22;20613;-53
2023/08/01 08:13:21;;;;;;;2.27;2.07;;;20.70;77.60;21.50;99222.00;;;;6272146;22;20156;-53
2023/08/01 08:15:47;;;;;;;2.30;2.10;;;20.70;77.50;21.50;99211.00;;;;6272069;22;20145;-54
2023/08/01 08:18:13;;;;;;;2.20;2.10;;;20.70;77.50;21.50;99218.00;;;;6272053;22;20164;-53
2023/08/01 08:20:44;;;;;;;3.23;2.30;;;20.70;77.60;21.50;99217.00;;;;6270960;22;20179;-53
2023/08/01 08:23:10;;;;;;;2.17;2.00;;;20.70;77.60;21.50;99211.00;;;;6270796;22;20207;-53
2023/08/01 08:25:36;;;;;;;2.30;2.10;;;20.70;78.30;21.50;99225.00;;;;6270635;22;20175;-54
2023/08/01 08:28:01;;;;;;;2.03;1.93;;;20.70;77.50;21.50;99220.00;;;;6271911;22;20534;-54
2023/08/01 08:30:27;;;;;;;2.73;2.10;;;20.70;77.50;21.50;99220.00;;;;6244918;22;20165;-53
2023/08/01 08:32:53;;;;;;;2.03;1.93;;;20.70;77.50;21.50;99226.00;;;;6270324;22;20590;-54
2023/08/01 08:35:18;;;;;;;2.07;1.97;;;20.70;77.40;21.50;99223.00;;;;6271842;22;20157;-54
2023/08/01 08:37:44;;;;;;;2.40;2.10;;;20.70;77.50;21.50;99219.00;;;;6271205;22;20152;-54
2023/08/01 08:40:12;;;;;;;3.10;2.20;;;20.70;77.90;21.50;99220.00;;;;6271525;22;20230;-52
2023/08/01 08:42:38;;;;;;;2.33;2.13;;;20.70;77.50;21.50;99224.00;;;;6271633;22;20218;-52
2023/08/01 08:45:04;;;;;;;2.10;2.00;;;20.70;77.40;21.50;99227.00;;;;6270292;22;20152;-54
2023/08/01 08:47:30;;;;;;;2.30;2.10;;;20.70;77.40;21.50;99206.00;;;;6271704;22;20259;-52
2023/08/01 08:49:59;;;;;;;2.83;2.10;;;20.70;77.50;21.50;99214.00;;;;6269903;22;20171;-52
2023/08/01 08:52:25;;;;;;;2.00;1.90;;;20.70;77.40;21.50;99225.00;;;;6245395;22;20168;-52
2023/08/01 08:54:52;;;;;;;3.07;2.13;;;20.70;77.50;21.50;99224.00;;;;6244883;22;20177;-53
2023/08/01 08:57:18;;;;;;;2.93;2.37;;;20.70;78.10;21.50;99214.00;;;;6272160;22;20145;-55
2023/08/01 08:59:44;;;;;;;5.23;2.20;;;20.70;77.70;21.50;99221.00;;;;6242895;22;20248;-50
2023/08/01 09:02:10;;;;;;;2.40;2.20;;;20.70;78.80;21.50;99229.00;;;;6273598;22;20154;-50
2023/08/01 09:04:36;;;;;;;2.47;2.27;;;20.60;78.00;21.50;99232.00;;;;6272564;22;20323;-50
2023/08/01 09:07:03;;;;;;;2.90;2.10;;;20.70;78.10;21.50;99227.00;;;;6271383;22;20145;-51
2023/08/01 09:09:29;;;;;;;3.13;2.27;;;20.60;78.00;21.50;99237.00;;;;6269353;22;20617;-51
2023/08/01 09:11:56;;;;;;;2.40;2.20;;;20.60;78.20;21.60;99229.00;;;;6270864;22;20209;-51
2023/08/01 09:14:22;;;;;;;2.57;2.37;;;20.60;78.20;21.60;99237.00;;;;6270626;22;20145;-51
2023/08/01 09:16:48;;;;;;;2.67;2.10;;;20.60;78.30;21.60;99234.00;;;;6274895;22;20670;-51
2023/08/01 09:19:21;;;;;;;2.40;2.20;;;20.60;78.50;21.60;99237.00;;;;6271324;22;20230;-50
2023/08/01 09:21:47;;;;;;;2.50;2.30;;;20.60;78.60;21.40;99254.00;;;;6268631;22;20148;-50
2023/08/01 09:24:16;;;;;;;2.80;2.37;;;20.60;78.50;21.60;99250.00;;;;6269558;22;20229;-49
2023/08/01 09:26:42;;;;;;;4.33;2.67;;;20.60;78.60;21.60;99242.00;;;;6268934;22;20145;-50
2023/08/01 09:29:08;;;;;;;12.57;3.60;;;20.70;78.80;21.50;99247.00;;;;6270411;22;20648;-49
2023/08/01 09:31:36;;;;;;;8.83;3.00;;;20.70;78.90;21.50;99248.00;;;;6269866;22;20144;-49
2023/08/01 09:34:06;;;;;;;4.40;2.90;;;20.70;78.60;21.50;99238.00;;;;6270812;22;20505;-50
2023/08/01 09:36:35;;;;;;;5.53;2.80;;;20.70;78.90;21.50;99241.00;;;;6269846;22;20648;-49
2023/08/01 09:39:02;;;;;;;7.30;3.03;;;20.80;79.00;21.50;99245.00;;;;6268559;22;20152;-52
2023/08/01 09:41:31;;;;;;;5.03;2.97;;;20.70;78.80;21.50;99245.00;;;;6268922;22;20157;-52
2023/08/01 09:43:57;;;;;;;6.57;2.70;;;20.70;78.60;21.60;99249.00;;;;6270894;22;20613;-53
2023/08/01 09:46:24;;;;;;;7.03;2.87;;;20.70;78.60;21.60;99236.00;;;;6269096;22;20206;-53
2023/08/01 09:48:49;;;;;;;5.43;2.83;;;20.70;78.40;21.60;99253.00;;;;6270207;22;20520;-53
2023/08/01 09:51:17;;;;;;;4.17;2.70;;;20.70;78.40;21.60;99250.00;;;;6268440;22;20482;-53
2023/08/01 09:53:56;;;;;;;3.53;2.90;;;20.70;78.40;21.60;99248.00;;;;6270160;22;20283;-53
2023/08/01 09:56:28;;;;;;;4.80;2.80;;;20.70;78.30;21.60;99239.00;;;;6268380;22;20494;-52
2023/08/01 09:58:55;;;;;;;6.33;3.10;;;20.70;78.40;21.60;99234.00;;;;6270239;22;20199;-53
2023/08/01 10:01:24;;;;;;;3.87;2.80;;;20.70;78.20;21.60;99239.00;;;;6270281;22;20605;-53
2023/08/01 10:03:52;;;;;;;3.33;2.60;;;20.70;78.30;21.60;99243.00;;;;6270395;22;20181;-53
2023/08/01 10:06:23;;;;;;;3.93;2.97;;;20.70;78.30;21.60;99239.00;;;;6270680;22;20148;-52
2023/08/01 10:08:50;;;;;;;4.47;2.80;;;20.70;78.20;21.60;99233.00;;;;6270862;22;20151;-53
2023/08/01 10:11:21;;;;;;;2.80;2.60;;;20.70;78.20;21.60;99228.00;;;;6270451;22;20710;-52
2023/08/01 10:13:47;;;;;;;3.00;2.70;;;20.70;78.20;21.60;99251.00;;;;6270800;22;20148;-53
2023/08/01 10:16:13;;;;;;;5.17;2.97;;;20.70;78.20;21.60;99252.00;;;;6268579;22;20153;-53
2023/08/01 10:18:39;;;;;;;3.63;3.00;;;20.70;78.30;21.60;99241.00;;;;6270764;22;20225;-53
2023/08/01 10:21:11;;;;;;;3.43;2.80;;;20.70;78.40;21.60;99242.00;;;;6269204;22;20199;-53
2023/08/01 10:23:37;;;;;;;3.53;2.70;;;20.70;78.30;21.70;99247.00;;;;6219096;22;20176;-52
2023/08/01 10:26:08;;;;;;;3.23;2.70;;;20.70;78.40;21.70;99236.00;;;;6268810;22;20214;-53
2023/08/01 10:28:38;;;;;;;3.43;2.90;;;20.70;78.40;21.70;99245.00;;;;6269205;22;20490;-53
2023/08/01 10:31:14;;;;;;;3.53;2.97;;;20.70;78.40;21.60;99240.00;;;;6271055;22;20188;-53
2023/08/01 10:34:11;;;;;;;4.43;2.80;;;20.70;78.40;21.70;99245.00;;;;6271607;22;20224;-52
2023/08/01 10:36:37;;;;;;;3.57;2.80;;;20.70;78.50;21.70;99243.00;;;;6262535;22;20244;-53
2023/08/01 10:39:03;;;;;;;3.00;2.70;;;20.70;78.40;21.60;99246.00;;;;6243879;22;20177;-53
2023/08/01 10:41:33;;;;;;;4.53;2.80;;;20.70;78.40;21.70;99254.00;;;;6271516;22;20600;-53
2023/08/01 10:44:25;;;;;;;4.13;2.60;;;20.70;78.40;21.70;99249.00;;;;6269360;22;20173;-53
2023/08/01 10:46:59;;;;;;;4.13;2.80;;;20.70;78.30;21.70;99251.00;;;;6265455;22;20270;-53
2023/08/01 10:49:37;;;;;;;5.20;2.93;;;20.70;78.20;21.70;99254.00;;;;6270535;22;20857;-52
2023/08/01 10:52:27;;;;;;;5.97;2.90;;;20.80;79.30;21.70;99245.00;;;;6268512;22;20148;-52